Time;durP1;ratioP1;P1;durP2;ratioP2;P2;SDS_P1;SDS_P2;PMS_P1;PMS_P2;Temp;Humidity;BMP_temperature;BMP_pressure;BME280_temperature;BME280_humidity;BME280_pressure;Samples;Min_cycle;Max_cycle;Signal;HPM_P1;HPM_P2
2021/03/28 00:00:07;;;;;;;24.92;4.40;;;;;;;3.99;83.91;100440.25;5107654;28;20024;-65
2021/03/28 00:02:48;;;;;;;19.80;3.60;;;;;;;3.92;83.87;100439.25;5107301;28;20024;-64
2021/03/28 00:05:24;;;;;;;18.08;4.25;;;;;;;3.93;84.01;100440.13;5107311;28;20028;-65
2021/03/28 00:07:58;;;;;;;33.17;4.03;;;;;;;3.92;83.94;100434.09;5107108;28;20020;-65
2021/03/28 00:10:29;;;;;;;25.45;4.38;;;;;;;3.89;84.04;100430.59;5107056;28;20028;-63
2021/03/28 00:13:10;;;;;;;21.43;4.83;;;;;;;3.89;83.93;100434.06;5107200;28;20054;-64
2021/03/28 00:15:44;;;;;;;30.85;6.43;;;;;;;3.82;83.94;100427.91;5107285;28;20034;-64
2021/03/28 00:18:21;;;;;;;14.57;2.97;;;;;;;3.81;83.94;100431.34;5106939;28;20536;-64
2021/03/28 00:20:49;;;;;;;20.58;5.28;;;;;;;3.80;83.97;100432.16;5107002;28;20039;-64
2021/03/28 00:23:16;;;;;;;19.88;3.47;;;;;;;3.78;83.89;100432.97;5106735;28;20027;-64
2021/03/28 00:26:01;;;;;;;19.08;3.78;;;;;;;3.76;83.79;100435.50;5106598;28;20047;-64
2021/03/28 00:28:51;;;;;;;9.48;3.15;;;;;;;3.77;83.71;100429.53;5107118;28;20024;-64
2021/03/28 00:31:17;;;;;;;18.85;3.10;;;;;;;3.78;83.69;100431.28;5107117;28;20331;-64
2021/03/28 00:33:57;;;;;;;20.92;4.18;;;;;;;3.75;83.42;100433.78;5106626;28;20028;-63
2021/03/28 00:36:31;;;;;;;21.42;3.22;;;;;;;3.72;83.39;100438.84;5106735;28;20431;-64
2021/03/28 00:38:57;;;;;;;16.58;3.97;;;;;;;3.76;83.20;100439.75;5106341;28;20393;-64
2021/03/28 00:41:46;;;;;;;16.02;3.65;;;;;;;3.70;83.09;100440.53;5106393;28;20115;-63
2021/03/28 00:44:15;;;;;;;19.05;4.30;;;;;;;3.68;83.13;100450.75;5088258;28;20028;-64
2021/03/28 00:46:51;;;;;;;18.20;2.50;;;;;;;3.69;83.05;100434.50;5106327;28;20024;-64
2021/03/28 00:49:57;;;;;;;26.52;4.47;;;;;;;3.75;82.99;100448.31;5106523;28;20024;-64
2021/03/28 00:52:32;;;;;;;24.45;3.90;;;;;;;3.72;83.07;100442.28;5056323;28;20059;-64
2021/03/28 00:55:14;;;;;;;22.77;4.38;;;;;;;3.71;83.06;100447.38;5105995;28;20092;-64
2021/03/28 00:57:42;;;;;;;24.05;6.05;;;;;;;3.67;82.96;100445.59;5106149;28;20024;-64
2021/03/28 01:00:11;;;;;;;19.95;4.20;;;;;;;3.66;83.32;100451.56;5106457;28;20036;-63
2021/03/28 01:03:02;;;;;;;29.17;3.78;;;;;;;3.63;83.42;100449.78;5106206;28;20357;-64
2021/03/28 01:05:51;;;;;;;29.17;4.70;;;;;;;3.59;83.74;100448.00;5106221;28;20027;-64
2021/03/28 01:08:28;;;;;;;29.35;4.55;;;;;;;3.60;83.76;100447.16;5105767;28;20028;-63
2021/03/28 01:11:02;;;;;;;31.40;4.05;;;;;;;3.57;84.05;100447.97;5105839;28;20520;-64
2021/03/28 01:13:53;;;;;;;36.20;4.55;;;;;;;3.58;84.15;100453.94;5105756;28;20020;-63
2021/03/28 01:16:56;;;;;;;26.17;4.75;;;;;;;3.59;84.43;100446.28;5106133;28;20062;-63
2021/03/28 01:19:58;;;;;;;26.33;3.80;;;;;;;3.58;84.65;100451.38;5105962;28;20098;-63
2021/03/28 01:22:31;;;;;;;17.70;5.82;;;;;;;3.47;84.65;100434.06;5105881;28;20056;-64
2021/03/28 01:25:19;;;;;;;29.27;6.20;;;;;;;3.56;84.72;100455.66;5105248;28;20082;-62
2021/03/28 01:27:51;;;;;;;30.52;4.43;;;;;;;3.56;84.59;100453.91;5105589;28;20023;-64
2021/03/28 01:30:20;;;;;;;32.72;4.75;;;;;;;3.56;84.68;100453.06;5105935;28;20030;-63
2021/03/28 01:32:53;;;;;;;26.88;4.50;;;;;;;3.55;84.67;100446.19;5105649;28;20024;-62
2021/03/28 01:35:38;;;;;;;22.80;3.63;;;;;;;3.53;84.84;100450.44;5105783;28;20492;-63
2021/03/28 01:38:06;;;;;;;29.85;4.47;;;;;;;3.53;84.69;100445.31;5105443;28;20052;-64
2021/03/28 01:40:34;;;;;;;32.30;4.80;;;;;;;3.47;84.74;100451.16;5105106;28;20130;-64
2021/03/28 01:43:18;;;;;;;18.90;4.43;;;;;;;3.46;84.86;100452.00;5105232;28;20023;-64
2021/03/28 01:46:09;;;;;;;13.75;2.78;;;;;;;3.45;84.84;100440.84;5105433;28;20020;-66
2021/03/28 01:48:56;;;;;;;20.67;3.60;;;;;;;3.48;84.85;100450.34;5105325;28;20030;-63
2021/03/28 01:51:34;;;;;;;21.88;4.90;;;;;;;3.45;84.84;100451.13;5105349;28;20016;-63
2021/03/28 01:54:09;;;;;;;18.95;3.85;;;;;;;3.45;84.96;100456.25;5105339;28;20063;-65
2021/03/28 01:57:05;;;;;;;24.42;4.93;;;;;;;3.57;84.87;100440.28;5105205;28;20110;-64
2021/03/28 01:59:53;;;;;;;29.85;4.90;;;;;;;3.59;84.99;100442.88;5105164;28;20028;-64
2021/03/28 02:02:21;;;;;;;31.23;5.25;;;;;;;3.69;85.05;100451.63;5104940;28;20403;-64
2021/03/28 02:05:11;;;;;;;19.60;2.92;;;;;;;3.78;85.36;100456.97;5104778;28;20028;-63
2021/03/28 02:07:45;;;;;;;23.35;5.10;;;;;;;3.90;85.23;100456.31;5104835;28;20363;-64
2021/03/28 02:10:28;;;;;;;19.05;4.28;;;;;;;3.90;85.21;100461.47;5104442;28;20019;-63
2021/03/28 02:13:01;;;;;;;26.63;4.97;;;;;;;3.91;85.22;100452.06;5104537;28;20035;-64
2021/03/28 02:15:52;;;;;;;33.30;5.18;;;;;;;3.96;85.29;100453.03;5104860;28;20020;-64
2021/03/28 02:18:35;;;;;;;30.10;5.15;;;;;;;3.93;85.19;100466.66;5104670;28;20070;-64
2021/03/28 02:21:22;;;;;;;22.23;4.75;;;;;;;3.93;85.19;100451.25;5103858;28;20024;-64
2021/03/28 02:23:53;;;;;;;29.80;4.18;;;;;;;3.98;85.06;100461.59;5104446;28;20043;-64
2021/03/28 02:26:51;;;;;;;28.65;4.53;;;;;;;3.98;85.28;100451.34;5104462;28;20031;-64
2021/03/28 02:29:30;;;;;;;17.63;3.47;;;;;;;4.00;85.20;100459.06;5021257;28;20057;-64
2021/03/28 02:32:11;;;;;;;27.58;4.90;;;;;;;4.02;85.33;100459.97;5021688;28;20089;-63
2021/03/28 02:35:00;;;;;;;22.30;4.50;;;;;;;3.99;85.12;100462.47;5005028;28;20045;-63
2021/03/28 02:37:42;;;;;;;26.05;5.35;;;;;;;3.97;85.12;100462.44;5011327;28;20026;-63
2021/03/28 02:40:19;;;;;;;22.23;4.78;;;;;;;3.96;85.28;100466.72;5021272;28;20105;-64
2021/03/28 02:43:10;;;;;;;23.20;4.07;;;;;;;3.97;85.33;100467.59;5021659;28;20099;-64
2021/03/28 02:45:43;;;;;;;22.20;4.65;;;;;;;4.04;85.31;100464.28;5021575;28;20052;-64
2021/03/28 02:48:23;;;;;;;23.60;3.70;;;;;;;4.10;85.45;100471.28;5021359;28;20038;-64
2021/03/28 02:51:34;;;;;;;22.83;4.50;;;;;;;4.21;85.21;100472.34;5021298;28;20029;-64
2021/03/28 02:54:20;;;;;;;21.42;5.63;;;;;;;4.24;85.14;100471.53;5006124;28;20042;-64
2021/03/28 02:56:53;;;;;;;23.58;4.60;;;;;;;4.25;84.96;100480.97;5021443;28;20022;-64
2021/03/28 02:59:37;;;;;;;21.13;4.70;;;;;;;4.22;84.79;100473.19;5021339;28;20034;-63
2021/03/28 03:02:22;;;;;;;26.80;5.07;;;;;;;4.31;84.80;100486.22;5021443;28;20030;-63
2021/03/28 03:05:27;;;;;;;19.85;4.45;;;;;;;4.39;84.47;100498.34;5031938;28;20026;-65
2021/03/28 03:08:06;;;;;;;23.17;5.45;;;;;;;4.40;84.35;100493.25;5104003;28;20030;-63
2021/03/28 03:10:50;;;;;;;18.85;4.70;;;;;;;4.38;84.23;100487.19;5103714;28;20038;-63
2021/03/28 03:13:45;;;;;;;9.00;3.05;;;;;;;4.44;84.07;100496.75;5104044;28;20107;-62
2021/03/28 03:16:36;;;;;;;18.58;4.53;;;;;;;4.47;83.72;100492.50;5104011;28;20030;-63
2021/03/28 03:19:37;;;;;;;13.00;3.95;;;;;;;4.45;83.46;100494.19;5103610;28;20030;-63
2021/03/28 03:22:24;;;;;;;21.00;4.57;;;;;;;4.49;83.30;100502.81;5103875;28;20032;-63
2021/03/28 03:25:08;;;;;;;24.27;4.53;;;;;;;4.49;83.38;100500.25;5091861;28;20122;-63
2021/03/28 03:27:47;;;;;;;13.57;4.78;;;;;;;4.55;83.30;100494.38;5083334;28;20028;-63
2021/03/28 03:30:32;;;;;;;15.23;3.38;;;;;;;4.56;82.96;100496.09;5066490;28;20025;-64
2021/03/28 03:33:32;;;;;;;23.45;4.63;;;;;;;4.56;82.98;100502.09;5082781;28;20024;-64
2021/03/28 03:36:20;;;;;;;22.50;4.50;;;;;;;4.62;83.00;100506.47;5083483;28;20065;-64
2021/03/28 03:38:51;;;;;;;23.35;4.97;;;;;;;4.65;83.02;100513.41;5065011;28;20028;-64
2021/03/28 03:41:42;;;;;;;28.33;4.80;;;;;;;4.64;82.77;100511.66;5083123;28;20020;-64
2021/03/28 03:44:33;;;;;;;19.25;3.50;;;;;;;4.66;83.05;100513.44;5083514;28;20467;-64
2021/03/28 03:47:36;;;;;;;15.90;4.68;;;;;;;4.66;82.80;100502.25;5064876;28;20020;-64
2021/03/28 03:50:20;;;;;;;17.85;3.60;;;;;;;4.59;82.62;100509.00;5065753;28;20036;-62
2021/03/28 03:53:00;;;;;;;18.42;4.38;;;;;;;4.50;82.58;100512.28;5083075;28;20044;-63
2021/03/28 03:55:44;;;;;;;32.15;4.32;;;;;;;4.43;82.72;100516.44;5082900;28;20028;-63
2021/03/28 03:58:28;;;;;;;15.45;3.92;;;;;;;4.38;82.77;100510.34;5083146;28;20020;-64
2021/03/28 04:01:01;;;;;;;19.58;4.35;;;;;;;4.34;82.60;100511.13;5083290;28;20029;-64
2021/03/28 04:04:00;;;;;;;21.00;3.65;;;;;;;4.28;82.81;100513.59;5083296;28;20467;-63
2021/03/28 04:06:58;;;;;;;17.00;4.22;;;;;;;4.32;82.64;100517.94;5049280;28;20101;-64
2021/03/28 04:09:29;;;;;;;18.65;3.95;;;;;;;4.25;82.32;100514.38;5082756;28;20028;-64
2021/03/28 04:12:18;;;;;;;23.13;4.05;;;;;;;4.23;82.49;100510.94;5083007;28;20092;-64
2021/03/28 04:14:52;;;;;;;15.25;4.05;;;;;;;4.21;82.37;100518.59;5082902;28;20036;-64
2021/03/28 04:17:55;;;;;;;23.45;3.75;;;;;;;4.15;82.25;100518.50;5082685;28;20029;-64
2021/03/28 04:20:57;;;;;;;9.63;2.53;;;;;;;4.14;82.22;100521.03;5082894;28;20042;-64
2021/03/28 04:23:25;;;;;;;8.60;1.63;;;;;;;4.17;81.95;100515.94;5082767;28;20017;-64
2021/03/28 04:26:35;;;;;;;14.35;4.60;;;;;;;4.15;81.49;100523.63;5102018;28;20052;-64
2021/03/28 04:29:07;;;;;;;15.85;2.85;;;;;;;4.17;81.03;100521.09;5000600;28;20701;-64
2021/03/28 04:31:35;;;;;;;13.50;4.70;;;;;;;4.18;80.71;100521.13;5000815;28;20403;-63
2021/03/28 04:34:09;;;;;;;13.82;4.90;;;;;;;4.17;80.74;100521.94;5000762;28;20106;-63
2021/03/28 04:36:41;;;;;;;8.63;2.97;;;;;;;4.21;80.44;100521.19;5000743;28;20049;-64
2021/03/28 04:39:12;;;;;;;17.25;2.85;;;;;;;4.22;80.14;100525.47;4984504;28;20030;-64
2021/03/28 04:41:50;;;;;;;11.50;3.17;;;;;;;4.26;79.87;100526.41;5000735;28;20034;-63
2021/03/28 04:44:46;;;;;;;12.07;2.67;;;;;;;4.25;79.42;100518.66;5003709;28;20414;-64
2021/03/28 04:47:42;;;;;;;19.80;4.60;;;;;;;4.26;79.19;100520.38;5004149;28;20031;-64
2021/03/28 04:50:38;;;;;;;11.07;3.30;;;;;;;4.30;79.25;100522.16;5004076;28;20042;-65
2021/03/28 04:53:22;;;;;;;14.38;4.60;;;;;;;4.26;78.85;100526.41;5004128;28;20418;-64
2021/03/28 04:56:15;;;;;;;17.55;3.45;;;;;;;4.27;78.86;100524.69;5003639;28;20031;-64
2021/03/28 04:59:17;;;;;;;22.40;4.75;;;;;;;4.29;78.88;100520.44;5003838;28;20026;-64
2021/03/28 05:02:05;;;;;;;11.48;3.15;;;;;;;4.30;78.83;100514.47;5003992;28;20129;-63
2021/03/28 05:04:49;;;;;;;14.35;4.10;;;;;;;4.29;78.82;100510.16;5105985;28;20032;-65
2021/03/28 05:07:46;;;;;;;10.45;3.50;;;;;;;4.26;78.52;100512.69;5105939;28;20156;-65
2021/03/28 05:10:43;;;;;;;9.95;2.70;;;;;;;4.22;77.95;100515.19;5105963;28;20105;-65
2021/03/28 05:13:20;;;;;;;14.27;3.42;;;;;;;4.20;77.77;100513.44;5049863;28;20150;-64
2021/03/28 05:16:17;;;;;;;10.93;3.15;;;;;;;4.29;77.79;100515.31;5106286;28;20354;-65
2021/03/28 05:18:49;;;;;;;6.95;2.10;;;;;;;4.32;77.39;100525.66;5105789;28;20119;-65
2021/03/28 05:21:23;;;;;;;8.80;2.08;;;;;;;4.36;77.15;100524.84;5106239;28;20024;-65
2021/03/28 05:24:16;;;;;;;11.88;2.58;;;;;;;4.37;76.50;100523.16;5105887;28;20190;-65
2021/03/28 05:26:59;;;;;;;14.80;3.33;;;;;;;4.41;76.23;100520.66;5105699;28;20103;-64
2021/03/28 05:29:46;;;;;;;11.13;2.60;;;;;;;4.44;76.23;100528.44;5105694;28;20024;-64
2021/03/28 05:32:33;;;;;;;14.63;3.28;;;;;;;4.46;75.94;100531.03;5105798;28;20115;-64
2021/03/28 05:35:22;;;;;;;8.48;3.22;;;;;;;4.49;75.51;100528.53;5105635;28;20020;-63
2021/03/28 05:38:26;;;;;;;10.18;2.80;;;;;;;4.46;75.15;100533.59;5105555;28;20024;-64
2021/03/28 05:41:22;;;;;;;6.75;2.28;;;;;;;4.46;75.24;100542.19;5087009;28;20050;-64
2021/03/28 05:44:19;;;;;;;10.98;2.40;;;;;;;4.47;75.31;100536.22;5105481;28;20031;-64
2021/03/28 05:47:00;;;;;;;17.27;4.45;;;;;;;4.51;75.72;100543.97;5105362;28;20044;-64
2021/03/28 05:49:37;;;;;;;11.52;2.72;;;;;;;4.55;75.99;100535.50;5105027;28;20028;-65
2021/03/28 05:52:40;;;;;;;7.15;2.00;;;;;;;4.58;76.02;100549.25;5105212;28;20472;-64
2021/03/28 05:55:27;;;;;;;13.18;2.90;;;;;;;4.55;76.31;100540.66;5103737;28;20024;-66
2021/03/28 05:58:21;;;;;;;24.08;3.08;;;;;;;4.62;76.39;100552.78;5086696;28;20024;-65
2021/03/28 06:00:50;;;;;;;13.00;2.92;;;;;;;4.66;76.38;100551.13;5104737;28;20016;-65
2021/03/28 06:03:19;;;;;;;7.35;2.58;;;;;;;4.71;76.42;100547.78;5104813;28;20031;-65
2021/03/28 06:06:02;;;;;;;10.45;2.28;;;;;;;4.71;76.14;100542.63;5104511;28;20028;-65
2021/03/28 06:08:49;;;;;;;12.57;2.58;;;;;;;4.74;75.88;100546.13;5104640;28;20020;-66
2021/03/28 06:11:24;;;;;;;13.63;2.45;;;;;;;4.72;75.86;100551.25;5104451;28;20428;-64
2021/03/28 06:14:08;;;;;;;11.30;2.63;;;;;;;4.72;75.62;100548.66;5104635;28;20020;-66
2021/03/28 06:16:51;;;;;;;16.08;2.75;;;;;;;4.74;75.79;100547.00;5104643;28;20079;-64
2021/03/28 06:19:31;;;;;;;8.63;2.10;;;;;;;4.75;75.64;100551.28;5104432;28;20092;-64
2021/03/28 06:22:18;;;;;;;13.50;2.95;;;;;;;4.80;75.73;100551.38;5104361;28;20036;-64
2021/03/28 06:25:17;;;;;;;5.85;1.67;;;;;;;4.95;75.44;100556.78;5104022;28;20082;-65
2021/03/28 06:28:08;;;;;;;15.38;3.53;;;;;;;5.00;75.17;100562.00;5104627;28;20020;-64
2021/03/28 06:30:39;;;;;;;17.77;3.38;;;;;;;5.04;75.19;100556.09;5104720;28;20016;-64
2021/03/28 06:33:36;;;;;;;13.48;3.80;;;;;;;5.11;74.81;100557.06;5104487;28;20032;-66
2021/03/28 06:36:22;;;;;;;16.63;3.10;;;;;;;5.16;74.94;100560.56;5104723;28;20024;-66
2021/03/28 06:39:25;;;;;;;17.38;2.28;;;;;;;5.20;74.60;100549.47;5104358;28;20058;-64
2021/03/28 06:42:09;;;;;;;13.32;2.70;;;;;;;5.16;74.69;100557.97;5104182;28;20074;-64
2021/03/28 06:44:59;;;;;;;19.27;2.90;;;;;;;5.14;74.87;100558.81;5104418;28;20034;-67
2021/03/28 06:47:48;;;;;;;16.17;3.67;;;;;;;5.16;75.42;100562.28;5104279;28;20035;-65
2021/03/28 06:50:51;;;;;;;14.13;3.20;;;;;;;5.19;74.86;100563.19;5104419;28;20482;-65
2021/03/28 06:53:41;;;;;;;22.20;3.40;;;;;;;5.30;74.89;100560.75;5085479;28;20028;-66
2021/03/28 06:56:09;;;;;;;17.17;4.57;;;;;;;5.45;74.93;100570.44;5104004;28;20081;-65
2021/03/28 06:59:10;;;;;;;14.63;3.70;;;;;;;5.63;74.80;100574.16;5103788;28;20030;-65
2021/03/28 07:02:04;;;;;;;17.80;4.75;;;;;;;5.73;73.65;100566.56;5085627;28;20020;-65
2021/03/28 07:04:54;;;;;;;12.40;3.35;;;;;;;5.99;73.34;100566.06;5085740;28;20020;-65
2021/03/28 07:07:56;;;;;;;21.25;4.40;;;;;;;6.08;72.82;100573.94;5103813;28;20024;-65
2021/03/28 07:10:54;;;;;;;13.45;3.67;;;;;;;6.27;72.97;100566.41;5103599;28;20024;-66
2021/03/28 07:13:44;;;;;;;15.32;3.50;;;;;;;6.74;71.26;100569.50;5103701;28;20024;-65
2021/03/28 07:16:23;;;;;;;12.27;2.97;;;;;;;6.89;70.36;100571.38;5103907;28;20053;-65
2021/03/28 07:19:00;;;;;;;15.38;2.63;;;;;;;6.92;69.35;100569.69;5103763;28;20480;-67
2021/03/28 07:22:07;;;;;;;15.48;2.92;;;;;;;6.91;69.19;100575.72;5103735;28;20035;-65
2021/03/28 07:24:44;;;;;;;13.18;2.85;;;;;;;6.95;68.82;100568.84;5103036;28;20051;-66
2021/03/28 07:27:37;;;;;;;21.60;3.47;;;;;;;6.90;69.44;100573.97;5103821;28;20026;-65
2021/03/28 07:30:33;;;;;;;11.32;2.50;;;;;;;6.87;67.96;100575.66;5103661;28;20084;-65
2021/03/28 07:33:27;;;;;;;13.68;2.20;;;;;;;6.79;68.45;100578.16;5103471;28;20056;-65
2021/03/28 07:35:56;;;;;;;13.48;3.33;;;;;;;6.85;68.47;100580.81;5103742;28;20073;-65
2021/03/28 07:38:39;;;;;;;21.48;2.88;;;;;;;6.86;68.41;100585.13;5103466;28;20065;-65
2021/03/28 07:41:08;;;;;;;10.75;2.70;;;;;;;6.91;68.18;100586.03;5103369;28;20095;-65
2021/03/28 07:44:02;;;;;;;7.13;2.70;;;;;;;6.82;67.43;100580.78;5103496;28;20021;-65
2021/03/28 07:46:48;;;;;;;16.27;3.65;;;;;;;6.69;68.15;100587.53;5103799;28;20103;-65
2021/03/28 07:49:35;;;;;;;32.08;3.50;;;;;;;6.69;69.05;100593.53;5085304;28;20259;-66
2021/03/28 07:52:38;;;;;;;23.73;3.97;;;;;;;6.80;68.66;100583.34;5084974;28;20052;-65
2021/03/28 07:55:14;;;;;;;19.65;3.60;;;;;;;6.82;68.44;100585.94;5103415;28;20021;-64
2021/03/28 07:58:04;;;;;;;15.48;3.53;;;;;;;6.86;68.83;100579.94;5103500;28;20028;-66
2021/03/28 08:00:53;;;;;;;9.63;2.60;;;;;;;6.81;68.57;100577.34;5103730;28;20051;-66
2021/03/28 08:03:40;;;;;;;14.00;3.35;;;;;;;6.64;69.23;100582.31;5103534;28;20030;-65
2021/03/28 08:06:11;;;;;;;19.80;3.28;;;;;;;6.52;69.83;100575.31;5103357;28;20035;-66
2021/03/28 08:09:15;;;;;;;14.43;3.38;;;;;;;6.60;70.34;100583.13;5103091;28;20020;-65
2021/03/28 08:12:01;;;;;;;16.83;3.90;;;;;;;6.69;70.54;100579.78;5102984;28;20083;-65
2021/03/28 08:14:53;;;;;;;13.85;3.90;;;;;;;6.90;70.67;100575.69;5103381;28;20070;-64
2021/03/28 08:17:40;;;;;;;20.08;4.57;;;;;;;7.07;69.89;100575.84;5103581;28;20035;-65
2021/03/28 08:20:05;;;;;;;9.43;2.85;;;;;;;7.09;69.59;100574.16;5107200;28;20012;-67
2021/03/28 08:22:45;;;;;;;13.00;4.07;;;;;;;6.96;69.22;100575.75;5107085;28;20024;-64
2021/03/28 08:25:29;;;;;;;21.67;4.55;;;;;;;6.88;69.70;100575.69;5106391;28;20082;-65
2021/03/28 08:28:16;;;;;;;19.95;4.88;;;;;;;6.83;69.71;100577.34;5088481;28;20020;-64
2021/03/28 08:31:18;;;;;;;13.50;3.88;;;;;;;6.89;69.97;100572.25;5107041;28;20032;-65
2021/03/28 08:34:12;;;;;;;21.55;4.93;;;;;;;6.86;69.81;100564.47;5088265;28;20249;-65
2021/03/28 08:37:00;;;;;;;20.40;5.82;;;;;;;6.90;69.98;100568.78;5106882;28;20024;-65
2021/03/28 08:39:52;;;;;;;28.05;4.65;;;;;;;6.92;70.45;100567.09;5107012;28;20024;-64
2021/03/28 08:42:48;;;;;;;17.63;3.60;;;;;;;7.21;69.77;100564.75;5088417;28;20024;-65
2021/03/28 08:45:19;;;;;;;18.90;3.92;;;;;;;7.51;69.12;100563.25;5106871;28;20330;-66
2021/03/28 08:48:22;;;;;;;21.27;3.87;;;;;;;7.62;68.29;100568.50;5106473;28;20024;-66
2021/03/28 08:51:11;;;;;;;21.08;4.85;;;;;;;7.62;68.47;100559.00;5106781;28;20047;-66
2021/03/28 08:53:58;;;;;;;18.95;4.43;;;;;;;7.78;68.07;100559.13;5106550;28;20040;-65
2021/03/28 08:56:48;;;;;;;17.77;4.03;;;;;;;7.80;67.62;100559.97;5106345;28;20024;-65
2021/03/28 08:59:21;;;;;;;9.50;3.17;;;;;;;7.79;67.15;100564.31;5106206;28;20080;-65
2021/03/28 09:01:54;;;;;;;16.30;4.25;;;;;;;7.64;67.41;100548.69;5106486;28;20020;-66
2021/03/28 09:04:41;;;;;;;12.68;3.35;;;;;;;7.60;67.74;100560.75;5106317;28;20480;-66
2021/03/28 09:07:20;;;;;;;20.77;4.55;;;;;;;7.60;67.78;100550.41;5106321;28;20244;-66
2021/03/28 09:10:04;;;;;;;17.48;3.67;;;;;;;7.69;67.60;100549.59;5106366;28;20039;-65
2021/03/28 09:13:14;;;;;;;13.43;3.03;;;;;;;7.83;67.45;100551.41;5106296;28;20476;-66
2021/03/28 09:15:52;;;;;;;12.50;3.67;;;;;;;8.16;67.23;100540.31;4987439;28;20177;-65
2021/03/28 09:18:33;;;;;;;20.77;4.45;;;;;;;8.52;66.27;100549.91;5003653;28;20033;-64
2021/03/28 09:21:25;;;;;;;17.98;4.55;;;;;;;8.67;64.96;100547.38;5003700;28;20058;-63
2021/03/28 09:23:53;;;;;;;16.85;4.72;;;;;;;8.66;64.65;100539.63;5003340;28;20026;-65
2021/03/28 09:26:29;;;;;;;28.40;5.75;;;;;;;8.47;64.36;100528.34;5003143;28;20068;-66
2021/03/28 09:29:34;;;;;;;21.65;4.03;;;;;;;8.20;65.00;100520.53;5003383;28;20061;-64
2021/03/28 09:32:44;;;;;;;30.42;4.07;;;;;;;7.86;65.75;100536.75;4987196;28;20044;-64
2021/03/28 09:35:34;;;;;;;16.00;3.60;;;;;;;7.81;66.24;100528.13;5003332;28;20041;-63
2021/03/28 09:38:38;;;;;;;26.90;4.72;;;;;;;7.65;66.62;100527.19;5003396;28;20030;-63
2021/03/28 09:41:12;;;;;;;10.45;3.00;;;;;;;7.66;66.93;100522.03;5003056;28;20115;-64
2021/03/28 09:43:59;;;;;;;21.40;4.72;;;;;;;7.60;66.84;100518.53;5002922;28;20733;-64
2021/03/28 09:46:45;;;;;;;20.33;4.40;;;;;;;7.60;67.04;100513.38;5003214;28;20042;-64
2021/03/28 09:49:29;;;;;;;19.13;5.10;;;;;;;7.76;67.50;100514.31;5003092;28;20026;-65
2021/03/28 09:52:09;;;;;;;27.88;5.28;;;;;;;8.01;66.48;100507.53;5056313;28;20086;-65
2021/03/28 09:55:12;;;;;;;23.35;4.60;;;;;;;8.00;65.84;100502.34;5104913;28;20091;-66
2021/03/28 09:57:52;;;;;;;16.08;4.95;;;;;;;7.79;65.91;100496.25;5105008;28;20035;-64
2021/03/28 10:00:36;;;;;;;24.05;5.28;;;;;;;7.74;66.43;100490.19;5105106;28;20028;-64
2021/03/28 10:03:17;;;;;;;25.55;5.03;;;;;;;7.78;66.11;100491.94;5105099;28;20028;-65
2021/03/28 10:05:44;;;;;;;32.35;4.95;;;;;;;7.79;66.08;100494.53;5086619;28;20052;-64
2021/03/28 10:08:13;;;;;;;31.85;5.63;;;;;;;7.77;66.02;100510.88;5104706;28;20047;-65
2021/03/28 10:10:58;;;;;;;9.48;2.92;;;;;;;7.79;66.07;100516.91;5104479;28;20050;-65
2021/03/28 10:13:53;;;;;;;21.70;4.20;;;;;;;7.60;66.17;100521.13;5105036;28;20098;-65
2021/03/28 10:16:32;;;;;;;27.10;5.13;;;;;;;7.80;66.92;100506.59;5104880;28;20024;-66
2021/03/28 10:19:19;;;;;;;20.30;4.88;;;;;;;8.21;65.53;100505.88;5104429;28;20462;-66
2021/03/28 10:22:03;;;;;;;22.40;4.55;;;;;;;8.22;64.65;100497.25;5104613;28;20028;-65
2021/03/28 10:24:41;;;;;;;20.83;4.22;;;;;;;8.11;65.25;100494.63;5104389;28;20165;-66
2021/03/28 10:27:44;;;;;;;28.58;4.10;;;;;;;8.24;65.00;100495.53;5104482;28;20480;-65
2021/03/28 10:30:30;;;;;;;21.90;5.25;;;;;;;7.88;64.81;100497.97;5104535;28;20511;-66
2021/03/28 10:33:34;;;;;;;22.95;4.60;;;;;;;7.57;65.58;100496.13;5104433;28;20490;-65
2021/03/28 10:36:34;;;;;;;24.17;4.90;;;;;;;7.14;66.80;100512.22;5104326;28;20073;-65
2021/03/28 10:39:02;;;;;;;28.95;4.75;;;;;;;6.92;67.73;100505.16;5104203;28;20012;-67
2021/03/28 10:42:03;;;;;;;27.17;4.63;;;;;;;6.77;68.70;100512.78;5103451;28;20020;-67
2021/03/28 10:44:53;;;;;;;21.05;4.63;;;;;;;6.69;69.20;100505.81;5104209;28;20020;-66
2021/03/28 10:47:43;;;;;;;24.88;4.88;;;;;;;6.64;69.28;100504.06;5104326;28;20024;-67
2021/03/28 10:50:27;;;;;;;26.27;5.65;;;;;;;6.62;69.26;100492.84;5104566;28;20044;-67
2021/03/28 10:53:13;;;;;;;18.50;4.10;;;;;;;6.45;69.70;100509.88;5104292;28;20027;-67
2021/03/28 10:56:16;;;;;;;19.95;3.60;;;;;;;6.32;70.42;100505.47;5103708;28;20392;-67
2021/03/28 10:59:13;;;;;;;25.95;5.15;;;;;;;6.25;70.93;100508.81;5104094;28;20020;-66
2021/03/28 11:01:59;;;;;;;11.57;3.05;;;;;;;6.25;71.05;100503.66;5104002;28;20055;-66
2021/03/28 11:04:39;;;;;;;25.10;4.45;;;;;;;6.17;71.30;100499.28;5104186;28;20081;-66
2021/03/28 11:07:38;;;;;;;14.43;3.13;;;;;;;6.13;71.82;100500.09;5105185;28;20036;-65
2021/03/28 11:10:22;;;;;;;24.10;4.88;;;;;;;6.06;71.94;100496.59;5103781;28;20457;-67
2021/03/28 11:13:06;;;;;;;20.50;5.20;;;;;;;6.06;72.45;100490.56;5103767;28;20136;-67
2021/03/28 11:15:38;;;;;;;26.33;4.30;;;;;;;6.02;72.59;100488.78;5103679;28;20054;-66
2021/03/28 11:18:42;;;;;;;23.63;4.35;;;;;;;6.02;72.50;100483.63;5085362;28;20076;-64
2021/03/28 11:21:25;;;;;;;7.78;3.47;;;;;;;5.97;72.64;100483.56;5103627;28;20028;-65
2021/03/28 11:24:16;;;;;;;29.52;5.85;;;;;;;5.90;73.09;100480.03;5103094;28;20062;-64
2021/03/28 11:27:00;;;;;;;30.67;5.80;;;;;;;5.83;73.48;100479.09;5103192;28;20293;-63
2021/03/28 11:30:13;;;;;;;19.88;5.65;;;;;;;5.78;74.25;100472.16;5103481;28;20032;-64
2021/03/28 11:32:56;;;;;;;22.48;4.68;;;;;;;5.76;74.49;100471.28;5079365;28;20465;-64
2021/03/28 11:35:40;;;;;;;32.80;7.25;;;;;;;5.78;74.79;100470.44;5103817;28;20036;-64
2021/03/28 11:38:27;;;;;;;19.88;4.78;;;;;;;5.81;74.86;100464.47;5103350;28;20016;-63
2021/03/28 11:41:11;;;;;;;24.65;5.75;;;;;;;5.92;74.63;100462.03;5103174;28;20028;-63
2021/03/28 11:43:43;;;;;;;18.92;4.65;;;;;;;5.88;74.69;100439.66;5103193;28;20080;-64
2021/03/28 11:46:34;;;;;;;31.65;7.53;;;;;;;6.01;75.11;100444.09;5103423;28;20060;-66
2021/03/28 11:48:59;;;;;;;25.92;3.58;;;;;;;6.10;75.16;100439.91;5070990;28;20036;-65
2021/03/28 11:51:35;;;;;;;31.85;6.47;;;;;;;6.17;75.13;100452.88;5085234;28;20023;-65
2021/03/28 11:54:09;;;;;;;17.80;3.65;;;;;;;6.14;75.07;100445.13;5106246;28;20020;-64
2021/03/28 11:56:49;;;;;;;32.65;6.97;;;;;;;6.14;75.25;100455.44;5107157;28;20066;-64
2021/03/28 11:59:17;;;;;;;15.93;4.35;;;;;;;6.12;75.39;100453.69;5107379;28;20099;-64
2021/03/28 12:01:55;;;;;;;31.27;6.35;;;;;;;6.03;75.81;100451.84;5107397;28;20103;-65
2021/03/28 12:04:25;;;;;;;32.05;6.53;;;;;;;6.09;76.00;100446.78;5107167;28;20419;-64
2021/03/28 12:06:56;;;;;;;22.88;6.00;;;;;;;6.10;76.19;100437.34;5107487;28;20480;-65
2021/03/28 12:09:29;;;;;;;28.83;7.68;;;;;;;6.12;76.55;100441.66;5107122;28;20031;-65
2021/03/28 12:12:19;;;;;;;29.35;5.70;;;;;;;6.13;76.70;100435.66;5106893;28;20028;-65
2021/03/28 12:14:44;;;;;;;18.42;5.15;;;;;;;6.04;76.62;100438.09;5106732;28;20032;-65
2021/03/28 12:17:10;;;;;;;25.33;7.25;;;;;;;5.86;77.36;100437.06;5107182;28;20058;-65
2021/03/28 12:19:53;;;;;;;35.67;8.27;;;;;;;5.76;78.45;100433.50;5088401;28;20024;-64
2021/03/28 12:22:43;;;;;;;28.27;8.25;;;;;;;5.74;78.40;100427.47;5107284;28;20054;-64
2021/03/28 12:25:15;;;;;;;26.27;6.93;;;;;;;5.75;79.10;100430.91;5105516;28;20125;-64
2021/03/28 12:27:47;;;;;;;18.92;5.13;;;;;;;5.72;79.45;100425.72;5105344;28;20441;-64
2021/03/28 12:30:28;;;;;;;;;;;;;;;5.73;79.90;100425.75;5105972;28;20035;-63
2021/03/28 12:33:10;;;;;;;17.60;5.18;;;;;;;5.62;80.58;100417.88;5105493;28;19919;-65
2021/03/28 12:36:06;;;;;;;38.13;11.00;;;;;;;5.54;81.03;100419.50;5105746;28;20031;-63
2021/03/28 12:38:40;;;;;;;28.02;8.15;;;;;;;5.51;81.25;100415.16;5105274;28;20020;-63
2021/03/28 12:41:11;;;;;;;38.13;12.00;;;;;;;5.58;81.19;100416.09;5105011;28;20023;-64
2021/03/28 12:44:06;;;;;;;29.88;9.77;;;;;;;5.60;81.26;100413.53;5105382;28;20016;-63
2021/03/28 12:46:31;;;;;;;30.80;9.40;;;;;;;5.64;81.49;100405.88;5073376;28;20092;-64